Latest Weather Observations for Busselton Jetty

IDW60801

Issued at 7:02 pm WST Wednesday 25 May 2016 (issued every 30 minutes, with the page automatically refreshed every 10 minutes)

About weather observations | Map of weather stations | Latest weather observations for WA | Other Formats
Station Details ID: 009937 Name: BUSSELTON JETTY Lat: -33.63 Lon: 115.34 Height: 3.0 m
Data from the previous 72 hours. | See also: Recent months at Busselton Jetty
Date/Time
WST
Temp
°C
App
Temp
°C
Dew
Point
Rel
Hum
%
Delta-T
°C
Wind Press
QNH
hPa
Press
MSL
hPa
Rain
since 9 am
mm
Dir
 
Spd
km/h
Gust
km/h
Spd
kts
Gust
kts
25/07:00pm - - - - - WNW 33 39 18 21 - - -
25/06:30pm - - - - - W 33 39 18 21 - - -
25/06:00pm - - - - - WNW 32 37 17 20 - - -
25/05:30pm - - - - - WNW 28 35 15 19 - - -
25/05:00pm - - - - - NW 22 28 12 15 - - -
25/04:30pm - - - - - NNW 28 33 15 18 - - -
25/04:00pm - - - - - NW 26 32 14 17 - - -
25/03:30pm - - - - - WNW 35 46 19 25 - - -
25/03:00pm - - - - - WNW 28 35 15 19 - - -
25/02:30pm - - - - - WNW 17 20 9 11 - - -
25/02:00pm - - - - - W 32 39 17 21 - - -
25/01:30pm - - - - - W 32 37 17 20 - - -
25/01:00pm - - - - - WNW 33 37 18 20 - - -
25/12:59pm - - - - - WNW 32 37 17 20 - - -
25/12:30pm - - - - - NW 11 19 6 10 - - -
25/12:00pm - - - - - ENE 9 13 5 7 - - -
25/11:30am - - - - - NNE 9 11 5 6 - - -
25/11:00am - - - - - NE 4 7 2 4 - - -
25/10:30am - - - - - ESE 2 7 1 4 - - -
25/10:00am - - - - - S 9 15 5 8 - - -
25/09:30am - - - - - WSW 11 15 6 8 - - -
25/09:00am - - - - - NNE 9 11 5 6 - - -
25/08:30am - - - - - CALM 0 0 0 0 - - -
25/08:00am - - - - - SSW 9 15 5 8 - - -
25/07:30am - - - - - S 11 15 6 8 - - -
25/07:00am - - - - - WSW 13 15 7 8 - - -
25/06:30am - - - - - SW 15 19 8 10 - - -
25/06:00am - - - - - SSW 15 20 8 11 - - -
25/05:30am - - - - - WSW 30 35 16 19 - - -
25/05:10am - - - - - WSW 20 37 11 20 - - -
25/05:00am - - - - - WNW 7 13 4 7 - - -
25/04:30am - - - - - SSE 7 9 4 5 - - -
25/04:00am - - - - - S 7 9 4 5 - - -
25/03:30am - - - - - SSW 17 19 9 10 - - -
25/03:00am - - - - - WSW 13 19 7 10 - - -
25/02:30am - - - - - SSW 13 20 7 11 - - -
25/02:00am - - - - - W 6 9 3 5 - - -
25/01:30am - - - - - SSW 13 17 7 9 - - -
25/01:00am - - - - - WSW 19 26 10 14 - - -
25/12:30am - - - - - CALM 0 0 0 0 - - -
25/12:00am - - - - - SSW 11 13 6 7 - - -
 
Date/Time
WST
Temp
°C
App
Temp
°C
Dew
Point
Rel
Hum
%
Delta-T
°C
Wind Press
QNH
hPa
Press
MSL
hPa
Rain
since 9 am
mm
Dir
 
Spd
km/h
Gust
km/h
Spd
kts
Gust
kts
24/11:30pm - - - - - WSW 28 35 15 19 - - -
24/11:21pm - - - - - WSW 26 37 14 20 - - -
24/11:00pm - - - - - WSW 15 19 8 10 - - -
24/10:30pm - - - - - S 7 11 4 6 - - -
24/10:00pm - - - - - SW 30 37 16 20 - - -
24/09:33pm - - - - - WSW 24 57 13 31 - - -
24/09:30pm - - - - - WSW 17 19 9 10 - - -
24/09:00pm - - - - - WSW 19 22 10 12 - - -
24/08:30pm - - - - - WSW 17 30 9 16 - - -
24/08:00pm - - - - - WSW 35 48 19 26 - - -
24/07:53pm - - - - - W 24 48 13 26 - - -
24/07:30pm - - - - - W 13 17 7 9 - - -
24/07:00pm - - - - - SW 11 15 6 8 - - -
24/06:30pm - - - - - SW 20 26 11 14 - - -
24/06:00pm - - - - - WSW 20 37 11 20 - - -
24/05:30pm - - - - - WSW 19 24 10 13 - - -
24/05:00pm - - - - - WSW 20 28 11 15 - - -
24/04:36pm - - - - - W 30 48 16 26 - - -
24/04:30pm - - - - - WSW 24 30 13 16 - - -
24/04:00pm - - - - - WSW 28 33 15 18 - - -
24/03:30pm - - - - - SW 28 33 15 18 - - -
24/03:00pm - - - - - WSW 32 43 17 23 - - -
24/02:30pm - - - - - WSW 37 43 20 23 - - -
24/02:00pm - - - - - WSW 32 37 17 20 - - -
24/01:30pm - - - - - WSW 37 41 20 22 - - -
24/01:00pm - - - - - WSW 24 35 13 19 - - -
24/12:30pm - - - - - WSW 24 41 13 22 - - -
24/12:16pm - - - - - WSW 33 59 18 32 - - -
24/12:00pm - - - - - WSW 24 32 13 17 - - -
24/11:30am - - - - - SW 30 39 16 21 - - -
24/11:00am - - - - - WSW 28 39 15 21 - - -
24/10:30am - - - - - WSW 26 32 14 17 - - -
24/10:00am - - - - - WSW 43 56 23 30 - - -
24/09:55am - - - - - WSW 28 54 15 29 - - -
24/09:30am - - - - - WSW 22 33 12 18 - - -
24/09:15am - - - - - SW 30 46 16 25 - - -
24/09:00am - - - - - SW 17 20 9 11 - - -
24/08:30am - - - - - SW 37 56 20 30 - - -
24/08:27am - - - - - SW 30 54 16 29 - - -
24/08:00am - - - - - SW 19 26 10 14 - - -
24/07:30am - - - - - WSW 32 39 17 21 - - -
24/07:00am - - - - - WSW 33 39 18 21 - - -
24/06:41am - - - - - WSW 37 56 20 30 - - -
24/06:30am - - - - - WSW 41 52 22 28 - - -
24/06:00am - - - - - WSW 46 59 25 32 - - -
24/05:30am - - - - - WSW 46 54 25 29 - - -
24/05:00am - - - - - WSW 41 52 22 28 - - -
24/04:30am - - - - - WSW 39 48 21 26 - - -
24/04:13am - - - - - WSW 46 65 25 35 - - -
24/04:00am - - - - - WSW 41 52 22 28 - - -
24/03:30am - - - - - WSW 39 48 21 26 - - -
24/03:00am - - - - - W 39 52 21 28 - - -
24/02:52am - - - - - WNW 56 70 30 38 - - -
24/02:49am - - - - - NW 59 70 32 38 - - -
24/02:30am - - - - - NNW 59 70 32 38 - - -
24/02:06am - - - - - NNW 57 76 31 41 - - -
24/02:00am - - - - - NNW 57 69 31 37 - - -
24/01:30am - - - - - NNW 59 72 32 39 - - -
24/01:01am - - - - - NNW 63 82 34 44 - - -
24/01:00am - - - - - NNW 61 76 33 41 - - -
24/12:30am - - - - - NNW 69 96 37 52 - - -
24/12:29am - - - - - NNW 69 96 37 52 - - -
24/12:26am - - - - - NNW 65 96 35 52 - - -
24/12:00am - - - - - N 61 82 33 44 - - -
 
Date/Time
WST
Temp
°C
App
Temp
°C
Dew
Point
Rel
Hum
%
Delta-T
°C
Wind Press
QNH
hPa
Press
MSL
hPa
Rain
since 9 am
mm
Dir
 
Spd
km/h
Gust
km/h
Spd
kts
Gust
kts
23/11:44pm - - - - - NNW 52 70 28 38 - - -
23/11:30pm - - - - - NNW 61 83 33 45 - - -
23/11:26pm - - - - - NNW 69 91 37 49 - - -
23/11:18pm - - - - - N 67 100 36 54 - - -
23/11:17pm - - - - - N 63 100 34 54 - - -
23/11:15pm - - - - - N 57 95 31 51 - - -
23/11:14pm - - - - - N 56 76 30 41 - - -
23/11:00pm - - - - - N 56 72 30 39 - - -
23/10:30pm - - - - - N 54 72 29 39 - - -
23/10:26pm - - - - - N 54 72 29 39 - - -
23/10:00pm - - - - - N 56 67 30 36 - - -
23/09:30pm - - - - - N 50 61 27 33 - - -
23/09:00pm - - - - - N 54 63 29 34 - - -
23/08:30pm - - - - - N 57 72 31 39 - - -
23/08:00pm - - - - - N 52 61 28 33 - - -
23/07:30pm - - - - - N 54 67 29 36 - - -
23/07:00pm - - - - - N 57 72 31 39 - - -
23/06:30pm - - - - - N 56 67 30 36 - - -
23/06:00pm - - - - - N 56 67 30 36 - - -
23/05:30pm - - - - - N 56 65 30 35 - - -
23/05:00pm - - - - - N 54 67 29 36 - - -
23/04:30pm - - - - - N 57 70 31 38 - - -
23/04:00pm - - - - - N 57 70 31 38 - - -
23/03:30pm - - - - - N 54 69 29 37 - - -
23/03:00pm - - - - - N 59 70 32 38 - - -
23/02:30pm - - - - - N 54 69 29 37 - - -
23/02:00pm - - - - - N 50 63 27 34 - - -
23/01:30pm - - - - - N 52 61 28 33 - - -
23/01:00pm - - - - - N 50 57 27 31 - - -
23/12:30pm - - - - - N 44 54 24 29 - - -
23/12:00pm - - - - - N 50 57 27 31 - - -
23/11:30am - - - - - N 50 59 27 32 - - -
23/11:00am - - - - - NNE 44 52 24 28 - - -
23/10:30am - - - - - N 43 50 23 27 - - -
23/10:00am - - - - - NNE 41 48 22 26 - - -
23/09:30am - - - - - N 41 48 22 26 - - -
23/09:00am - - - - - N 37 43 20 23 - - -
23/08:30am - - - - - NNW 32 39 17 21 - - -
23/08:00am - - - - - N 32 35 17 19 - - -
23/07:30am - - - - - NNW 33 37 18 20 - - -
23/07:00am - - - - - NNW 32 37 17 20 - - -
23/06:30am - - - - - NW 35 39 19 21 - - -
23/06:12am - - - - - NW 30 48 16 26 - - -
23/06:00am - - - - - NW 26 35 14 19 - - -
23/05:30am - - - - - WNW 24 28 13 15 - - -
23/05:00am - - - - - NW 20 35 11 19 - - -
23/04:30am - - - - - WNW 35 46 19 25 - - -
23/04:22am - - - - - NW 28 43 15 23 - - -
23/04:00am - - - - - WNW 13 17 7 9 - - -
23/03:30am - - - - - W 9 11 5 6 - - -
23/03:00am - - - - - NW 20 24 11 13 - - -
23/02:30am - - - - - SSW 13 28 7 15 - - -
23/02:00am - - - - - ESE 9 11 5 6 - - -
23/01:30am - - - - - E 11 15 6 8 - - -
23/01:00am - - - - - NE 13 15 7 8 - - -
23/12:30am - - - - - E 11 13 6 7 - - -
23/12:00am - - - - - ESE 9 11 5 6 - - -
 
Date/Time
WST
Temp
°C
App
Temp
°C
Dew
Point
Rel
Hum
%
Delta-T
°C
Wind Press
QNH
hPa
Press
MSL
hPa
Rain
since 9 am
mm
Dir
 
Spd
km/h
Gust
km/h
Spd
kts
Gust
kts
22/11:30pm - - - - - SE 6 7 3 4 - - -
22/11:00pm - - - - - S 7 9 4 5 - - -
22/10:30pm - - - - - SSW 11 13 6 7 - - -
22/10:00pm - - - - - W 11 15 6 8 - - -
22/09:30pm - - - - - W 11 20 6 11 - - -
22/09:00pm - - - - - CALM 0 0 0 0 - - -
22/08:30pm - - - - - SW 9 11 5 6 - - -
22/08:00pm - - - - - SW 11 17 6 9 - - -
22/07:30pm - - - - - SSW 7 11 4 6 - - -

Other Formats:

Comma delimited format used in spreadsheet applications
http://www.bom.gov.au/fwo/IDW60801/IDW60801.95602.axf

JavaScript Object Notation format (JSON) in row-major order
http://www.bom.gov.au/fwo/IDW60801/IDW60801.95602.json